createdAt,value
2022-10-29T00:02:06.116Z,100.00
2022-10-29T00:04:32.818Z,100.00
2022-10-29T00:06:59.540Z,100.00
2022-10-29T00:09:26.094Z,100.00
2022-10-29T00:11:52.750Z,100.00
2022-10-29T00:14:19.376Z,100.00
2022-10-29T00:16:45.913Z,100.00
2022-10-29T00:19:12.470Z,100.00
2022-10-29T00:21:40.457Z,100.00
2022-10-29T00:24:09.897Z,100.00
2022-10-29T00:26:36.539Z,100.00
2022-10-29T00:29:03.127Z,100.00
2022-10-29T00:31:31.028Z,100.00
2022-10-29T00:33:57.863Z,100.00
2022-10-29T00:36:27.049Z,100.00
2022-10-29T00:38:54.167Z,100.00
2022-10-29T00:41:27.091Z,100.00
2022-10-29T00:44:22.922Z,100.00
2022-10-29T00:46:56.452Z,100.00
2022-10-29T00:49:24.806Z,100.00
2022-10-29T00:51:51.740Z,100.00
2022-10-29T00:54:18.972Z,100.00
2022-10-29T00:56:51.799Z,100.00
2022-10-29T00:59:18.610Z,100.00
2022-10-29T01:01:48.406Z,100.00
2022-10-29T01:04:17.034Z,100.00
2022-10-29T01:06:44.134Z,100.00
2022-10-29T01:09:10.939Z,100.00
2022-10-29T01:12:20.837Z,100.00
2022-10-29T01:14:50.281Z,100.00
2022-10-29T01:17:28.221Z,100.00
2022-10-29T01:20:06.706Z,100.00
2022-10-29T01:22:45.927Z,100.00
2022-10-29T01:25:36.151Z,100.00
2022-10-29T01:28:39.569Z,100.00
2022-10-29T01:31:27.710Z,100.00
2022-10-29T01:34:21.815Z,100.00
2022-10-29T01:36:53.506Z,100.00
2022-10-29T01:39:29.115Z,100.00
2022-10-29T01:42:18.573Z,100.00
2022-10-29T01:45:09.365Z,100.00
2022-10-29T01:47:44.554Z,100.00
2022-10-29T01:50:16.026Z,100.00
2022-10-29T01:52:43.708Z,100.00
2022-10-29T01:55:10.483Z,100.00
2022-10-29T01:57:39.134Z,100.00
2022-10-29T02:00:14.595Z,100.00
2022-10-29T02:03:18.632Z,100.00
2022-10-29T02:05:58.896Z,100.00
2022-10-29T02:08:47.066Z,100.00
2022-10-29T02:11:27.684Z,100.00
2022-10-29T02:14:03.977Z,100.00
2022-10-29T02:16:31.747Z,100.00
2022-10-29T02:18:59.560Z,100.00
2022-10-29T02:21:26.475Z,100.00
2022-10-29T02:23:53.299Z,100.00
2022-10-29T02:26:19.998Z,100.00
2022-10-29T02:28:46.655Z,100.00
2022-10-29T02:31:13.295Z,100.00
2022-10-29T02:33:40.039Z,100.00
2022-10-29T02:36:07.124Z,100.00
2022-10-29T02:38:33.775Z,100.00
2022-10-29T02:41:00.392Z,100.00
2022-10-29T02:43:26.999Z,100.00
2022-10-29T02:46:12.022Z,100.00
2022-10-29T02:48:38.855Z,100.00
2022-10-29T02:51:05.587Z,100.00
2022-10-29T02:53:32.220Z,100.00
2022-10-29T02:55:59.003Z,100.00
2022-10-29T02:58:25.611Z,100.00
2022-10-29T03:00:53.206Z,100.00
2022-10-29T03:03:19.812Z,100.00
2022-10-29T03:05:49.019Z,100.00
2022-10-29T03:08:16.072Z,100.00
2022-10-29T03:10:42.779Z,100.00
2022-10-29T03:13:09.678Z,100.00
2022-10-29T03:15:36.892Z,100.00
2022-10-29T03:18:04.674Z,100.00
2022-10-29T03:20:31.301Z,100.00
2022-10-29T03:22:57.897Z,100.00
2022-10-29T03:25:24.468Z,100.00
2022-10-29T03:27:51.083Z,100.00
2022-10-29T03:30:17.966Z,100.00
2022-10-29T03:32:46.338Z,100.00
2022-10-29T03:35:14.712Z,100.00
2022-10-29T03:37:41.844Z,100.00
2022-10-29T03:40:09.472Z,100.00
2022-10-29T03:42:37.636Z,100.00
2022-10-29T03:45:04.390Z,100.00
2022-10-29T03:47:33.127Z,100.00
2022-10-29T03:49:59.674Z,100.00
2022-10-29T03:52:26.258Z,100.00
2022-10-29T03:54:52.840Z,100.00
2022-10-29T03:57:19.782Z,100.00
2022-10-29T03:59:49.893Z,100.00
2022-10-29T04:02:19.162Z,100.00
2022-10-29T04:04:46.007Z,100.00
2022-10-29T04:07:12.650Z,100.00
2022-10-29T04:09:39.306Z,100.00
2022-10-29T04:12:06.521Z,100.00
2022-10-29T04:14:33.159Z,100.00
2022-10-29T04:16:59.987Z,100.00
2022-10-29T04:19:26.953Z,100.00
2022-10-29T04:32:40.929Z,100.00
2022-10-29T04:35:07.968Z,100.00
2022-10-29T04:37:34.556Z,100.00
2022-10-29T04:40:01.112Z,100.00
2022-10-29T04:42:27.667Z,100.00
2022-10-29T04:44:55.593Z,100.00
2022-10-29T04:47:22.219Z,100.00
2022-10-29T04:49:48.839Z,100.00
2022-10-29T04:52:15.540Z,100.00
2022-10-29T04:54:42.209Z,100.00
2022-10-29T04:57:09.014Z,100.00
2022-10-29T04:59:35.548Z,100.00
2022-10-29T05:02:02.135Z,100.00
2022-10-29T05:04:29.556Z,100.00
2022-10-29T05:06:56.129Z,100.00
2022-10-29T05:09:24.792Z,100.00
2022-10-29T05:11:51.395Z,100.00
2022-10-29T05:14:17.978Z,100.00
2022-10-29T05:16:45.017Z,100.00
2022-10-29T05:19:11.615Z,100.00
2022-10-29T05:21:38.188Z,100.00
2022-10-29T05:24:04.908Z,100.00
2022-10-29T05:26:34.973Z,100.00
2022-10-29T05:29:01.666Z,100.00
2022-10-29T05:31:28.266Z,100.00
2022-10-29T05:33:55.995Z,99.52
2022-10-29T05:36:22.985Z,95.56
2022-10-29T05:38:49.646Z,89.67
2022-10-29T05:41:17.085Z,81.35
2022-10-29T05:43:43.721Z,78.65
2022-10-29T05:46:10.332Z,73.93
2022-10-29T05:48:36.876Z,70.98
2022-10-29T05:51:04.480Z,67.10
2022-10-29T05:53:31.052Z,64.44
2022-10-29T05:55:59.459Z,62.54
2022-10-29T05:58:26.121Z,61.61
2022-10-29T06:00:52.667Z,59.78
2022-10-29T06:03:21.534Z,59.84
2022-10-29T06:05:49.640Z,62.18
2022-10-29T06:08:17.170Z,62.80
2022-10-29T06:10:43.852Z,63.46
2022-10-29T06:13:16.483Z,66.22
2022-10-29T06:15:43.117Z,72.67
2022-10-29T06:18:09.761Z,76.32
2022-10-29T06:20:37.757Z,83.29
2022-10-29T06:23:04.849Z,85.52
2022-10-29T06:25:32.119Z,92.74
2022-10-29T06:28:03.852Z,92.14
2022-10-29T06:30:31.851Z,93.62
2022-10-29T06:32:59.174Z,95.52
2022-10-29T06:35:26.523Z,98.01
2022-10-29T06:37:53.283Z,100.00
2022-10-29T06:40:20.369Z,100.00
2022-10-29T06:42:46.928Z,100.00
2022-10-29T06:45:13.924Z,100.00
2022-10-29T06:47:45.155Z,100.00
2022-10-29T06:50:13.513Z,100.00
2022-10-29T06:52:40.119Z,100.00
2022-10-29T06:55:07.921Z,100.00
2022-10-29T06:57:34.983Z,100.00
2022-10-29T07:00:05.661Z,100.00
2022-10-29T07:02:35.479Z,100.00
2022-10-29T07:05:02.180Z,100.00
2022-10-29T07:07:29.291Z,100.00
2022-10-29T07:09:55.869Z,100.00
2022-10-29T07:12:22.417Z,100.00
2022-10-29T07:14:49.090Z,100.00
2022-10-29T07:17:15.685Z,100.00
2022-10-29T07:19:42.293Z,100.00
2022-10-29T07:22:08.866Z,100.00
2022-10-29T07:24:35.414Z,100.00
2022-10-29T07:27:02.152Z,100.00
2022-10-29T07:29:28.919Z,100.00
2022-10-29T07:31:55.534Z,100.00
2022-10-29T07:34:22.105Z,99.15
2022-10-29T07:36:48.708Z,96.70
2022-10-29T07:39:15.335Z,95.58
2022-10-29T07:41:41.871Z,95.80
2022-10-29T07:44:08.571Z,96.02
2022-10-29T07:46:35.152Z,93.91
2022-10-29T07:49:01.891Z,91.81
2022-10-29T07:51:28.548Z,88.87
2022-10-29T07:53:55.109Z,90.05
2022-10-29T07:56:21.710Z,88.31
2022-10-29T07:58:48.299Z,87.72
2022-10-29T08:01:15.006Z,86.47
2022-10-29T08:03:41.747Z,84.37
2022-10-29T08:06:08.321Z,84.53
2022-10-29T08:08:34.965Z,82.30
2022-10-29T08:11:02.725Z,80.69
2022-10-29T08:13:29.808Z,79.10
2022-10-29T08:15:56.709Z,79.73
2022-10-29T08:18:23.274Z,78.47
2022-10-29T08:20:49.825Z,74.64
2022-10-29T08:23:16.885Z,71.28
2022-10-29T08:25:44.491Z,71.03
2022-10-29T08:28:13.268Z,70.98
2022-10-29T08:30:40.872Z,68.32
2022-10-29T08:33:07.679Z,67.40
2022-10-29T08:35:34.492Z,65.95
2022-10-29T08:38:01.165Z,63.21
2022-10-29T08:40:46.497Z,62.64
2022-10-29T08:43:33.114Z,61.55
2022-10-29T08:45:59.733Z,60.18
2022-10-29T08:48:48.014Z,59.57
2022-10-29T08:51:22.313Z,58.79
2022-10-29T08:54:17.299Z,56.68
2022-10-29T08:56:48.462Z,55.15
2022-10-29T08:59:21.855Z,54.68
2022-10-29T09:01:49.230Z,54.03
2022-10-29T09:04:22.583Z,53.76
2022-10-29T09:07:19.899Z,53.41
2022-10-29T09:09:46.392Z,53.28
2022-10-29T09:12:55.125Z,53.34
2022-10-29T09:15:26.003Z,53.04
2022-10-29T09:18:30.120Z,52.81
2022-10-29T09:21:14.008Z,52.08
2022-10-29T09:23:54.055Z,51.71
2022-10-29T09:26:40.781Z,51.60
2022-10-29T09:29:25.057Z,50.41
2022-10-29T09:31:56.629Z,49.98
2022-10-29T09:34:36.696Z,50.61
2022-10-29T09:37:13.463Z,50.60
2022-10-29T09:39:42.150Z,49.84
2022-10-29T09:42:12.230Z,49.92
2022-10-29T09:44:48.160Z,49.17
2022-10-29T09:47:45.167Z,48.53
2022-10-29T09:50:23.930Z,48.21
2022-10-29T09:52:50.650Z,47.93
2022-10-29T09:55:38.605Z,47.65
2022-10-29T09:58:06.720Z,47.49
2022-10-29T10:00:34.333Z,46.97
2022-10-29T10:03:13.936Z,46.70
2022-10-29T10:06:07.665Z,45.93
2022-10-29T10:08:35.690Z,45.36
2022-10-29T10:11:16.251Z,45.10
2022-10-29T10:13:57.816Z,44.88
2022-10-29T10:16:27.598Z,44.51
2022-10-29T10:18:54.419Z,43.95
2022-10-29T10:21:25.467Z,44.12
2022-10-29T10:23:54.196Z,43.59
2022-10-29T10:26:43.502Z,43.64
2022-10-29T10:29:19.242Z,43.77
2022-10-29T10:31:47.888Z,44.40
2022-10-29T10:34:19.259Z,43.87
2022-10-29T10:37:02.116Z,43.42
2022-10-29T10:39:31.562Z,43.06
2022-10-29T10:42:05.356Z,43.05
2022-10-29T10:44:33.025Z,43.29
2022-10-29T10:47:06.747Z,43.17
2022-10-29T10:49:36.452Z,43.13
2022-10-29T10:52:16.240Z,43.25
2022-10-29T10:55:00.639Z,44.55
2022-10-29T10:57:32.575Z,43.68
2022-10-29T10:59:59.131Z,43.47
2022-10-29T11:03:00.087Z,42.52
2022-10-29T11:05:35.619Z,42.56
2022-10-29T11:08:19.733Z,41.02
2022-10-29T11:10:54.627Z,40.37
2022-10-29T11:13:23.415Z,40.31
2022-10-29T11:15:58.528Z,40.82
2022-10-29T11:18:38.085Z,40.80
2022-10-29T11:21:19.451Z,40.20
2022-10-29T11:24:19.772Z,39.76
2022-10-29T11:26:55.734Z,39.18
2022-10-29T11:29:29.379Z,40.47
2022-10-29T11:32:13.821Z,40.71
2022-10-29T11:34:47.695Z,40.17
2022-10-29T11:37:27.667Z,39.82
2022-10-29T11:39:57.335Z,40.28
2022-10-29T11:42:24.911Z,40.05
2022-10-29T11:44:51.923Z,40.43
2022-10-29T11:47:31.949Z,39.95
2022-10-29T11:50:04.592Z,39.57
2022-10-29T11:52:39.789Z,39.03
2022-10-29T11:55:38.213Z,39.18
2022-10-29T11:58:11.611Z,39.05
2022-10-29T12:00:58.460Z,39.26
2022-10-29T12:03:39.531Z,39.67
2022-10-29T12:06:16.745Z,39.99
2022-10-29T12:08:55.382Z,40.65
2022-10-29T12:11:43.306Z,39.85
2022-10-29T12:14:20.841Z,39.71
2022-10-29T12:16:50.220Z,39.24
2022-10-29T12:19:31.441Z,39.46
2022-10-29T12:22:18.080Z,39.66
2022-10-29T12:25:21.038Z,39.06
2022-10-29T12:27:56.580Z,38.02
2022-10-29T12:30:24.529Z,37.60
2022-10-29T12:33:19.915Z,36.78
2022-10-29T12:35:49.480Z,36.26
2022-10-29T12:38:25.896Z,37.24
2022-10-29T12:41:02.853Z,37.26
2022-10-29T12:43:31.727Z,36.71
2022-10-29T12:46:21.550Z,36.35
2022-10-29T12:49:16.365Z,36.54
2022-10-29T12:51:54.486Z,36.97
2022-10-29T12:54:26.871Z,36.73
2022-10-29T12:56:53.961Z,36.06
2022-10-29T12:59:32.468Z,35.87
2022-10-29T13:02:19.026Z,35.94
2022-10-29T13:05:10.684Z,35.80
2022-10-29T13:07:38.795Z,35.88
2022-10-29T13:10:23.649Z,35.40
2022-10-29T13:12:59.347Z,35.52
2022-10-29T13:15:45.285Z,35.48
2022-10-29T13:18:44.941Z,34.97
2022-10-29T13:21:11.628Z,34.34
2022-10-29T13:23:38.368Z,34.75
2022-10-29T13:26:09.137Z,35.10
2022-10-29T13:28:35.640Z,34.92
2022-10-29T13:31:02.120Z,35.40
2022-10-29T13:33:49.342Z,35.28
2022-10-29T13:36:15.877Z,35.22
2022-10-29T13:39:04.923Z,35.66
2022-10-29T13:41:42.958Z,35.09
2022-10-29T13:44:25.174Z,35.05
2022-10-29T13:47:15.043Z,35.20
2022-10-29T13:49:45.203Z,34.97
2022-10-29T13:52:16.858Z,35.04
2022-10-29T13:55:01.946Z,35.07
2022-10-29T13:57:51.895Z,35.45
2022-10-29T14:00:20.909Z,36.01
2022-10-29T14:03:02.290Z,36.13
2022-10-29T14:05:34.045Z,36.26
2022-10-29T14:08:15.541Z,36.09
2022-10-29T14:10:42.038Z,36.29
2022-10-29T14:13:14.329Z,36.81
2022-10-29T14:16:20.420Z,36.68
2022-10-29T14:18:49.129Z,37.27
2022-10-29T14:21:23.995Z,37.07
2022-10-29T14:23:58.030Z,36.98
2022-10-29T14:26:25.621Z,36.58
2022-10-29T14:28:53.118Z,36.62
2022-10-29T14:31:25.316Z,36.60
2022-10-29T14:33:56.385Z,36.47
2022-10-29T14:36:29.883Z,36.20
2022-10-29T14:38:56.544Z,35.35
2022-10-29T14:41:24.894Z,34.79
2022-10-29T14:43:56.225Z,34.76
2022-10-29T14:46:26.663Z,30.83
2022-10-29T14:49:05.185Z,28.39
2022-10-29T14:51:40.412Z,30.42
2022-10-29T14:54:09.217Z,31.97
2022-10-29T14:56:40.304Z,33.60
2022-10-29T14:59:19.333Z,34.37
2022-10-29T15:01:57.039Z,35.20
2022-10-29T15:04:29.730Z,36.39
2022-10-29T15:07:14.721Z,37.76
2022-10-29T15:09:42.639Z,38.42
2022-10-29T15:12:21.031Z,38.75
2022-10-29T15:14:49.801Z,39.34
2022-10-29T15:17:26.181Z,39.84
2022-10-29T15:19:59.778Z,40.10
2022-10-29T15:22:38.142Z,40.64
2022-10-29T15:25:08.680Z,40.82
2022-10-29T15:27:36.414Z,41.58
2022-10-29T15:30:04.455Z,41.81
2022-10-29T15:32:31.629Z,42.09
2022-10-29T15:34:59.792Z,42.39
2022-10-29T15:37:42.231Z,42.69
2022-10-29T15:40:12.548Z,43.27
2022-10-29T15:42:40.226Z,43.27
2022-10-29T15:45:16.346Z,43.79
2022-10-29T15:47:48.363Z,44.14
2022-10-29T15:50:19.527Z,44.37
2022-10-29T15:52:52.346Z,44.73
2022-10-29T15:55:26.226Z,45.15
2022-10-29T15:57:56.376Z,45.34
2022-10-29T16:00:23.976Z,45.95
2022-10-29T16:02:51.407Z,47.89
2022-10-29T16:05:18.891Z,48.02
2022-10-29T16:07:47.301Z,47.36
2022-10-29T16:10:20.331Z,46.70
2022-10-29T16:12:49.452Z,47.08
2022-10-29T16:15:18.862Z,47.17
2022-10-29T16:17:46.397Z,47.51
2022-10-29T16:20:18.319Z,48.29
2022-10-29T16:22:46.720Z,48.78
2022-10-29T16:25:25.496Z,49.85
2022-10-29T16:27:52.880Z,50.21
2022-10-29T16:30:20.979Z,50.27
2022-10-29T16:32:55.916Z,50.37
2022-10-29T16:35:25.633Z,50.49
2022-10-29T16:37:53.529Z,50.64
2022-10-29T16:40:22.329Z,50.63
2022-10-29T16:42:48.959Z,50.89
2022-10-29T16:45:24.843Z,51.09
2022-10-29T16:47:52.317Z,51.35
2022-10-29T16:50:38.829Z,51.73
2022-10-29T16:53:08.292Z,51.58
2022-10-29T16:55:36.949Z,52.48
2022-10-29T16:58:04.199Z,52.56
2022-10-29T17:00:36.377Z,52.70
2022-10-29T17:03:06.849Z,52.53
2022-10-29T17:05:39.860Z,53.59
2022-10-29T17:08:07.004Z,53.21
2022-10-29T17:10:34.550Z,53.53
2022-10-29T17:13:01.283Z,54.28
2022-10-29T17:15:28.365Z,55.10
2022-10-29T17:17:54.927Z,55.33
2022-10-29T17:20:21.631Z,55.70
2022-10-29T17:22:48.217Z,56.24
2022-10-29T17:25:14.860Z,56.60
2022-10-29T17:27:41.958Z,57.84
2022-10-29T17:30:10.827Z,58.05
2022-10-29T17:32:37.531Z,58.80
2022-10-29T17:35:04.524Z,59.67
2022-10-29T17:37:31.462Z,60.54
2022-10-29T17:40:02.965Z,59.96
2022-10-29T17:42:33.732Z,60.58
2022-10-29T17:45:00.289Z,60.55
2022-10-29T17:47:26.972Z,61.27
2022-10-29T17:49:53.715Z,61.43
2022-10-29T17:52:20.352Z,62.36
2022-10-29T17:54:47.058Z,63.79
2022-10-29T17:57:13.708Z,64.46
2022-10-29T17:59:40.437Z,64.54
2022-10-29T18:02:11.076Z,64.73
2022-10-29T18:04:37.937Z,65.06
2022-10-29T18:07:04.510Z,65.89
2022-10-29T18:09:31.186Z,67.33
2022-10-29T18:11:57.938Z,67.96
2022-10-29T18:14:24.727Z,67.85
2022-10-29T18:16:51.473Z,68.65
2022-10-29T18:19:18.198Z,70.50
2022-10-29T18:21:44.997Z,71.93
2022-10-29T18:24:11.647Z,73.00
2022-10-29T18:26:38.344Z,76.02
2022-10-29T18:29:08.488Z,76.94
2022-10-29T18:31:36.466Z,76.69
2022-10-29T18:34:06.591Z,75.96
2022-10-29T18:36:35.722Z,77.14
2022-10-29T18:39:04.047Z,79.48
2022-10-29T18:41:31.248Z,82.74
2022-10-29T18:43:59.114Z,81.72
2022-10-29T18:46:26.294Z,84.54
2022-10-29T18:48:53.151Z,81.82
2022-10-29T18:51:25.739Z,82.26
2022-10-29T18:53:54.536Z,87.27
2022-10-29T18:56:22.713Z,89.30
2022-10-29T18:58:49.773Z,85.32
2022-10-29T19:01:22.806Z,87.92
2022-10-29T19:03:51.693Z,86.81
2022-10-29T19:06:19.852Z,88.98
2022-10-29T19:08:47.327Z,90.74
2022-10-29T19:11:16.907Z,92.95
2022-10-29T19:13:43.920Z,94.84
2022-10-29T19:16:14.071Z,93.57
2022-10-29T19:18:41.522Z,95.32
2022-10-29T19:21:17.325Z,97.77
2022-10-29T19:23:46.352Z,94.13
2022-10-29T19:26:15.135Z,92.46
2022-10-29T19:28:43.194Z,93.07
2022-10-29T19:31:17.850Z,93.26
2022-10-29T19:33:52.380Z,94.10
2022-10-29T19:36:20.034Z,94.17
2022-10-29T19:38:47.273Z,97.14
2022-10-29T19:41:15.325Z,99.37
2022-10-29T19:43:42.127Z,100.00
2022-10-29T19:46:10.308Z,100.00
2022-10-29T19:48:36.949Z,100.00
2022-10-29T19:51:03.927Z,100.00
2022-10-29T19:53:31.411Z,100.00
2022-10-29T19:55:58.501Z,100.00
2022-10-29T19:58:27.703Z,100.00
2022-10-29T20:00:55.355Z,100.00
2022-10-29T20:03:22.073Z,100.00
2022-10-29T20:05:49.549Z,100.00
2022-10-29T20:08:16.588Z,100.00
2022-10-29T20:10:43.656Z,100.00
2022-10-29T20:13:10.408Z,100.00
2022-10-29T20:15:38.780Z,100.00
2022-10-29T20:18:05.719Z,100.00
2022-10-29T20:20:32.383Z,100.00
2022-10-29T20:23:00.316Z,100.00
2022-10-29T20:25:27.843Z,100.00
2022-10-29T20:27:54.508Z,100.00
2022-10-29T20:30:22.016Z,100.00
2022-10-29T20:32:49.178Z,100.00
2022-10-29T20:35:16.979Z,100.00
2022-10-29T20:37:43.649Z,100.00
2022-10-29T20:40:11.160Z,100.00
2022-10-29T20:42:37.776Z,100.00
2022-10-29T20:45:05.129Z,100.00
2022-10-29T20:47:31.700Z,100.00
2022-10-29T20:49:58.448Z,100.00
2022-10-29T20:52:25.090Z,100.00
2022-10-29T20:54:51.649Z,100.00
2022-10-29T20:57:18.222Z,100.00
2022-10-29T20:59:45.386Z,100.00
2022-10-29T21:02:12.573Z,100.00
2022-10-29T21:04:39.405Z,100.00
2022-10-29T21:07:07.767Z,100.00
2022-10-29T21:09:34.620Z,100.00
2022-10-29T21:12:01.208Z,100.00
2022-10-29T21:14:29.606Z,100.00
2022-10-29T21:16:56.353Z,100.00
2022-10-29T21:19:23.086Z,100.00
2022-10-29T21:21:49.685Z,100.00
2022-10-29T21:24:17.826Z,100.00
2022-10-29T21:26:44.414Z,100.00
2022-10-29T21:29:10.992Z,100.00
2022-10-29T21:31:37.777Z,100.00
2022-10-29T21:34:04.378Z,100.00
2022-10-29T21:36:30.930Z,100.00
2022-10-29T21:38:57.554Z,100.00
2022-10-29T21:41:24.108Z,100.00
2022-10-29T21:43:50.935Z,100.00
2022-10-29T21:46:17.561Z,100.00
2022-10-29T21:48:44.125Z,100.00
2022-10-29T21:51:12.093Z,100.00
2022-10-29T21:53:38.625Z,100.00
2022-10-29T21:56:07.923Z,100.00
2022-10-29T21:58:34.761Z,100.00
2022-10-29T22:01:10.344Z,100.00
2022-10-29T22:03:38.716Z,100.00
2022-10-29T22:06:19.756Z,100.00
2022-10-29T22:08:47.660Z,100.00
2022-10-29T22:11:15.420Z,100.00
2022-10-29T22:13:42.005Z,100.00
2022-10-29T22:16:09.853Z,100.00
2022-10-29T22:18:37.696Z,100.00
2022-10-29T22:21:07.410Z,100.00
2022-10-29T22:23:34.185Z,100.00
2022-10-29T22:26:00.859Z,100.00
2022-10-29T22:28:27.575Z,100.00
2022-10-29T22:31:01.678Z,100.00
2022-10-29T22:33:29.052Z,100.00
2022-10-29T22:35:55.825Z,100.00
2022-10-29T22:38:22.420Z,100.00
2022-10-29T22:40:48.984Z,100.00
2022-10-29T22:43:15.689Z,100.00
2022-10-29T22:45:44.221Z,100.00
2022-10-29T22:48:10.753Z,100.00
2022-10-29T22:50:37.344Z,100.00
2022-10-29T22:53:03.947Z,100.00
2022-10-29T22:55:30.560Z,100.00
2022-10-29T22:57:57.126Z,100.00
2022-10-29T23:00:23.790Z,100.00
2022-10-29T23:02:50.428Z,100.00
2022-10-29T23:05:17.041Z,100.00
2022-10-29T23:07:43.594Z,100.00
2022-10-29T23:10:10.236Z,100.00
2022-10-29T23:12:38.318Z,100.00
2022-10-29T23:15:05.978Z,100.00
2022-10-29T23:17:32.648Z,100.00
2022-10-29T23:19:59.361Z,100.00
2022-10-29T23:22:27.641Z,100.00
2022-10-29T23:24:54.451Z,100.00
2022-10-29T23:27:21.057Z,100.00
2022-10-29T23:29:47.658Z,100.00
2022-10-29T23:32:14.224Z,100.00
2022-10-29T23:34:40.801Z,100.00
2022-10-29T23:37:09.912Z,100.00
2022-10-29T23:39:37.079Z,100.00
2022-10-29T23:42:03.867Z,100.00
2022-10-29T23:44:30.490Z,100.00
2022-10-29T23:46:57.068Z,100.00
2022-10-29T23:49:23.707Z,100.00
2022-10-29T23:51:50.313Z,100.00
2022-10-29T23:54:16.886Z,100.00
2022-10-29T23:56:43.486Z,100.00
2022-10-29T23:59:10.084Z,100.00
